Ride Results

Jarrahdale (25-07-2020)
Ride distance: 80.0 km

Outcomes - Jarrahdale (25-07-2020)
Division No. of Entries Retired / DNE Completed Withdrawn Ineligible V/O Percentage Completed
HW 4 - 2 1 - 1 50.00%
MW 11 - 10 - - 1 90.91%
LW 9 - 8 - - 1 88.89%
JN 1 - 1 - - - 100.00%
Totals 25 - 21 1 - 3 84.00%
Results - Jarrahdale (25-07-2020)
No. Rider Horse Place Time Leg Speeds Total
Km/Hr
H/R bpm
Heavyweight
166 Dave Radford Eleazar Orion 1 6:00:00 13.1, 13.5 13.33 32, 48, 48 (Avg:48)
18 Natasha Ellery Sundale Bellagio 2 6:47:00 12.6, 11.0 11.79 36, 45, 50 (Avg:47)
53 Norb Radny Jest A Golden Gift Lame L2 0:00:00 11.9, 12.4 - 35, 38, 50 (Avg:44)
60 Elsje Brandis Top Fancy Let's Tango W/D after vetting L1 0:00:00 - - 38, 54 (Avg:54)
Middleweight
9 Peter Sherwood Ruby Park Alaska 1 5:06:00 16.7, 14.7 15.69 37, 45, 51 (Avg:48)
103 Frances Overheu Poseidon Moon 2 5:51:00 16.2, 11.8 13.68 34, 39, 44 (Avg:41)
12 Caren Earl Noodles 3 5:59:00 13.8, 12.9 13.37 34, 42, 44 (Avg:43)
71 Tony Brandis Windinnie Moonlight Treasure 4 6:00:00 13.1, 13.5 13.33 38, 46, 51 (Avg:48)
11 Jane Radny Steel Poppy Regent 5 6:34:00 11.9, 12.4 12.18 37, 47, 55 (Avg:51)
19 Mel Ellery Sundale First Edition 6 6:47:00 12.6, 11.0 11.79 34, 44, 45 (Avg:44)
77 Nigel Irvine Rumble Hill Shadow Maker 7 6:51:00 11.8, 11.5 11.68 40, 46, 52 (Avg:49)
20 Cassie Mulcahy Eleazar Sharym 8 7:09:00 11.8, 10.6 11.19 39, 42, 36 (Avg:39)
39 Hannah Roscoe Mariba Shazam 9 7:38:00 11.5, 9.5 10.48 36, 50, 40 (Avg:45)
57 Carol Grgic Arabika Contessa 10 7:56:00 10.8, 9.4 10.08 40, 43, 49 (Avg:46)
102 Ian Stanley Neening Maya Heart Rate L1 0:00:00 14.6 - 32, 64 (Avg:64)
Lightweight
15 Kylie Day Stardale Fandraastic 1 6:00:00 13.1, 13.5 13.33 35, 48, 58 (Avg:53)
90 Tash Mensitieri Tora Malek 1 6:00:00 13.1, 13.5 13.33 34, 37, 40 (Avg:38)
TQ110 Ruth Morley Living on Love 3 6:05:00 13.1, 13.1 13.15 34, 44, 46 (Avg:45)
97 Bec Radny West Coast Kia 4 6:34:00 11.9, 12.4 12.18 36, 42, 41 (Avg:41)
R5 Tegan Symington Duo Park Royal Son 5 6:51:00 11.4, 11.9 11.68 32, 34, 38 (Avg:36)
38 Michelle Gorham Taleo Halim 6 7:38:00 11.5, 9.5 10.48 38, 55, 48 (Avg:51)
45 Kym Crook Ryah Park Kyeema 7 7:43:00 11.0, 9.7 10.37 40, 32, 36 (Avg:34)
42 Lyn Summerfield Kholonial Farrington 7 7:43:00 11.0, 9.7 10.37 33, 44, 44 (Avg:44)
40 Anne Airey Waveley Park Cellini Lame P/R 0:00:00 - - 39
Junior
34 Mackenzie Taylor Sholto Nitall 1 6:51:00 11.4, 11.9 11.68 38, 38, 51 (Avg:44)